createdAt,value
2018-09-23T00:01:28.554Z,100168.56
2018-09-23T00:03:57.576Z,100164.98
2018-09-23T00:06:26.545Z,100168.91
2018-09-23T00:08:55.553Z,100173.89
2018-09-23T00:11:24.533Z,100170.80
2018-09-23T00:13:53.597Z,100177.66
2018-09-23T00:16:22.553Z,100174.34
2018-09-23T00:18:51.573Z,100169.45
2018-09-23T00:21:20.573Z,100164.44
2018-09-23T00:23:49.930Z,100158.14
2018-09-23T00:26:18.890Z,100156.44
2018-09-23T00:28:47.895Z,100151.94
2018-09-23T00:31:16.845Z,100156.20
2018-09-23T00:33:45.824Z,100152.84
2018-09-23T00:36:14.775Z,100159.45
2018-09-23T00:38:43.751Z,100169.31
2018-09-23T00:41:12.711Z,100153.00
2018-09-23T00:43:41.695Z,100151.48
2018-09-23T00:46:10.674Z,100147.83
2018-09-23T00:48:39.592Z,100148.92
2018-09-23T00:51:08.587Z,100139.45
2018-09-23T00:53:37.554Z,100144.46
2018-09-23T00:56:07.231Z,100137.11
2018-09-23T00:58:36.204Z,100134.86
2018-09-23T01:01:05.166Z,100130.84
2018-09-23T01:03:34.209Z,100132.03
2018-09-23T01:06:03.178Z,100123.50
2018-09-23T01:08:32.170Z,100118.21
2018-09-23T01:11:01.202Z,100123.80
2018-09-23T01:13:30.163Z,100116.44
2018-09-23T01:15:59.121Z,100119.44
2018-09-23T01:18:28.082Z,100108.45
2018-09-23T01:20:57.049Z,100111.06
2018-09-23T01:23:26.042Z,100102.64
2018-09-23T01:25:55.017Z,100104.70
2018-09-23T01:28:23.978Z,100102.59
2018-09-23T01:30:52.934Z,100092.15
2018-09-23T01:33:21.886Z,100087.90
2018-09-23T01:35:51.461Z,100078.80
2018-09-23T01:38:20.417Z,100069.66
2018-09-23T01:40:49.385Z,100070.58
2018-09-23T01:43:18.362Z,100057.67
2018-09-23T01:45:47.325Z,100052.78
2018-09-23T01:48:16.285Z,100042.73
2018-09-23T01:50:45.257Z,100036.80
2018-09-23T01:53:14.206Z,100025.30
2018-09-23T01:55:43.192Z,100031.10
2018-09-23T01:58:12.141Z,100020.63
2018-09-23T02:00:41.113Z,100016.14
2018-09-23T02:03:10.062Z,100016.86
2018-09-23T02:05:39.054Z,100011.75
2018-09-23T02:08:08.013Z,100015.63
2018-09-23T02:10:36.969Z,100011.94
2018-09-23T02:13:05.934Z,100002.47
2018-09-23T02:15:34.934Z,100008.63
2018-09-23T02:18:03.938Z,100001.02
2018-09-23T02:20:32.906Z,99992.11
2018-09-23T02:23:01.913Z,99992.36
2018-09-23T02:25:30.941Z,99977.68
2018-09-23T02:27:59.910Z,99976.66
2018-09-23T02:30:28.920Z,99969.70
2018-09-23T02:32:57.874Z,99964.53
2018-09-23T02:35:26.835Z,99960.61
2018-09-23T02:37:55.845Z,99943.65
2018-09-23T02:40:24.812Z,99940.09
2018-09-23T02:42:53.773Z,99931.80
2018-09-23T02:45:22.742Z,99917.61
2018-09-23T02:47:51.709Z,99915.09
2018-09-23T02:50:20.795Z,99906.73
2018-09-23T02:52:49.846Z,99906.48
2018-09-23T02:55:18.802Z,99899.09
2018-09-23T02:57:47.843Z,99894.84
2018-09-23T03:00:16.813Z,99888.58
2018-09-23T03:02:45.761Z,99883.42
2018-09-23T03:05:14.734Z,99870.74
2018-09-23T03:07:43.685Z,99874.91
2018-09-23T03:10:12.636Z,99864.10
2018-09-23T03:12:41.578Z,99864.75
2018-09-23T03:15:10.535Z,99850.86
2018-09-23T03:17:39.492Z,99850.13
2018-09-23T03:20:08.459Z,99841.62
2018-09-23T03:22:37.401Z,99843.28
2018-09-23T03:25:06.491Z,99833.95
2018-09-23T03:27:35.543Z,99827.83
2018-09-23T03:30:04.542Z,99828.66
2018-09-23T03:32:33.478Z,99813.06
2018-09-23T03:35:02.564Z,99808.56
2018-09-23T03:37:31.525Z,99804.38
2018-09-23T03:40:00.476Z,99792.25
2018-09-23T03:42:29.418Z,99785.48
2018-09-23T03:44:58.362Z,99788.81
2018-09-23T03:47:27.309Z,99798.45
2018-09-23T03:49:56.268Z,99793.23
2018-09-23T03:52:25.238Z,99785.48
2018-09-23T03:54:54.177Z,99783.14
2018-09-23T03:57:23.154Z,99772.77
2018-09-23T03:59:52.117Z,99769.94
2018-09-23T04:02:21.162Z,99762.59
2018-09-23T04:04:50.419Z,99762.55
2018-09-23T04:07:19.398Z,99745.43
2018-09-23T04:09:48.338Z,99740.20
2018-09-23T04:12:17.310Z,99740.29
2018-09-23T04:14:46.277Z,99734.87
2018-09-23T04:17:15.226Z,99728.95
2018-09-23T04:19:44.233Z,99725.95
2018-09-23T04:22:13.186Z,99724.92
2018-09-23T04:24:42.133Z,99721.31
2018-09-23T04:27:11.093Z,99717.95
2018-09-23T04:29:40.045Z,99714.86
2018-09-23T04:32:09.065Z,99714.86
2018-09-23T04:34:38.010Z,99716.16
2018-09-23T04:37:07.107Z,99717.94
2018-09-23T04:39:36.062Z,99711.34
2018-09-23T04:42:05.054Z,99700.95
2018-09-23T04:44:34.110Z,99699.05
2018-09-23T04:47:03.092Z,99693.00
2018-09-23T04:49:32.029Z,99685.28
2018-09-23T04:52:01.135Z,99680.41
2018-09-23T04:54:30.114Z,99674.53
2018-09-23T04:56:59.071Z,99677.58
2018-09-23T04:59:28.014Z,99672.69
2018-09-23T05:01:57.083Z,99675.82
2018-09-23T05:04:26.088Z,99674.17
2018-09-23T05:06:55.039Z,99666.52
2018-09-23T05:09:23.992Z,99668.17
2018-09-23T05:11:52.989Z,99654.56
2018-09-23T05:14:21.942Z,99660.91
2018-09-23T05:16:50.962Z,99659.98
2018-09-23T05:19:19.915Z,99655.02
2018-09-23T05:21:48.913Z,99658.36
2018-09-23T05:24:17.901Z,99665.66
2018-09-23T05:26:46.886Z,99659.19
2018-09-23T05:29:15.849Z,99658.42
2018-09-23T05:31:44.867Z,99652.55
2018-09-23T05:34:13.818Z,99641.61
2018-09-23T05:36:42.785Z,99640.31
2018-09-23T05:39:12.190Z,99641.97
2018-09-23T05:41:41.324Z,99651.18
2018-09-23T05:44:10.696Z,99625.86
2018-09-23T05:46:39.923Z,99647.63
2018-09-23T05:49:09.206Z,99640.14
2018-09-23T05:51:38.283Z,99633.13
2018-09-23T05:54:07.227Z,99641.83
2018-09-23T05:56:36.186Z,99637.58
2018-09-23T05:59:05.130Z,99638.59
2018-09-23T06:01:34.073Z,99623.27
2018-09-23T06:04:03.170Z,99630.22
2018-09-23T06:06:32.162Z,99629.28
2018-09-23T06:09:01.092Z,99618.69
2018-09-23T06:11:30.048Z,99621.84
2018-09-23T06:13:59.098Z,99623.47
2018-09-23T06:16:28.051Z,99616.92
2018-09-23T06:18:57.010Z,99621.20
2018-09-23T06:21:25.951Z,99621.44
2018-09-23T06:23:54.906Z,99606.50
2018-09-23T06:26:23.881Z,99604.52
2018-09-23T06:28:53.054Z,99601.12
2018-09-23T06:31:22.302Z,99599.78
2018-09-23T06:33:51.264Z,99603.31
2018-09-23T06:36:20.225Z,99607.77
2018-09-23T06:38:49.306Z,99607.63
2018-09-23T06:41:18.294Z,99598.71
2018-09-23T06:43:47.273Z,99591.65
2018-09-23T06:46:16.225Z,99605.83
2018-09-23T06:48:45.187Z,99591.95
2018-09-23T06:51:14.163Z,99605.18
2018-09-23T06:53:43.113Z,99618.19
2018-09-23T06:56:12.064Z,99594.63
2018-09-23T06:58:41.029Z,99593.39
2018-09-23T07:01:10.060Z,99593.58
2018-09-23T07:03:39.030Z,99590.81
2018-09-23T07:06:07.971Z,99596.89
2018-09-23T07:08:37.093Z,99588.59
2018-09-23T07:11:06.283Z,99584.08
2018-09-23T07:13:35.413Z,99586.30
2018-09-23T07:16:04.373Z,99583.88
2018-09-23T07:18:33.337Z,99589.64
2018-09-23T07:21:02.298Z,99582.95
2018-09-23T07:23:31.322Z,99585.31
2018-09-23T07:26:00.303Z,99584.69
2018-09-23T07:28:29.269Z,99586.38
2018-09-23T07:30:58.295Z,99580.30
2018-09-23T07:33:27.450Z,99586.41
2018-09-23T07:36:02.150Z,99573.53
2018-09-23T07:38:38.107Z,99579.81
2018-09-23T07:41:19.599Z,99588.53
2018-09-23T07:43:56.742Z,99585.44
2018-09-23T07:46:34.119Z,99583.98
2018-09-23T07:49:07.522Z,99594.98
2018-09-23T07:51:41.855Z,99584.97
2018-09-23T07:54:14.449Z,99582.06
2018-09-23T07:56:46.525Z,99576.79
2018-09-23T07:59:24.644Z,99571.86
2018-09-23T08:01:56.852Z,99562.20
2018-09-23T08:04:35.882Z,99568.96
2018-09-23T08:07:24.332Z,99566.69
2018-09-23T08:09:57.528Z,99561.75
2018-09-23T08:12:32.817Z,99552.77
2018-09-23T08:15:07.441Z,99555.88
2018-09-23T08:17:45.448Z,99553.42
2018-09-23T08:20:23.190Z,99555.35
2018-09-23T08:22:58.469Z,99562.02
2018-09-23T08:25:31.035Z,99553.91
2018-09-23T08:28:15.476Z,99551.82
2018-09-23T08:30:52.466Z,99543.87
2018-09-23T08:33:29.033Z,99543.50
2018-09-23T08:36:00.723Z,99544.38
2018-09-23T08:38:32.903Z,99538.70
2018-09-23T08:41:19.015Z,99534.96
2018-09-23T08:43:51.208Z,99526.31
2018-09-23T08:46:23.251Z,99522.08
2018-09-23T08:48:56.881Z,99531.30
2018-09-23T08:51:31.113Z,99527.03
2018-09-23T08:54:07.765Z,99520.78
2018-09-23T08:57:03.433Z,99520.23
2018-09-23T08:59:41.449Z,99526.47
2018-09-23T09:02:15.883Z,99517.39
2018-09-23T09:04:47.675Z,99511.75
2018-09-23T09:07:24.650Z,99507.45
2018-09-23T09:09:56.210Z,99509.43
2018-09-23T09:12:37.408Z,99506.30
2018-09-23T09:15:11.330Z,99508.93
2018-09-23T09:17:46.276Z,99506.28
2018-09-23T09:20:22.041Z,99503.35
2018-09-23T09:23:00.757Z,99499.20
2018-09-23T09:25:37.163Z,99508.03
2018-09-23T09:28:09.338Z,99500.13
2018-09-23T09:30:44.999Z,99498.54
2018-09-23T09:33:27.122Z,99489.53
2018-09-23T09:36:01.002Z,99499.00
2018-09-23T09:38:34.822Z,99488.58
2018-09-23T09:41:14.839Z,99482.48
2018-09-23T09:43:49.889Z,99481.26
2018-09-23T09:46:25.939Z,99479.22
2018-09-23T09:48:59.247Z,99477.66
2018-09-23T09:51:33.480Z,99479.38
2018-09-23T09:54:06.349Z,99465.88
2018-09-23T09:56:47.746Z,99468.11
2018-09-23T09:59:27.711Z,99450.34
2018-09-23T10:02:02.815Z,99447.66
2018-09-23T10:04:39.079Z,99442.59
2018-09-23T10:07:13.919Z,99445.58
2018-09-23T10:09:49.051Z,99441.33
2018-09-23T10:12:22.969Z,99432.03
2018-09-23T10:14:56.493Z,99437.19
2018-09-23T10:17:34.880Z,99423.63
2018-09-23T10:20:06.396Z,99430.85
2018-09-23T10:22:40.255Z,99412.23
2018-09-23T10:25:17.824Z,99417.33
2018-09-23T10:27:51.327Z,99410.97
2018-09-23T10:30:30.778Z,99409.60
2018-09-23T10:33:04.392Z,99408.33
2018-09-23T10:35:43.315Z,99404.95
2018-09-23T10:38:23.916Z,99394.61
2018-09-23T10:41:06.847Z,99394.80
2018-09-23T10:43:40.214Z,99384.63
2018-09-23T10:46:14.058Z,99392.53
2018-09-23T10:48:46.971Z,99385.48
2018-09-23T10:51:21.784Z,99383.80
2018-09-23T10:53:56.314Z,99382.34
2018-09-23T10:56:29.521Z,99373.93
2018-09-23T10:59:09.341Z,99371.91
2018-09-23T11:01:49.484Z,99377.45
2018-09-23T11:04:26.472Z,99371.02
2018-09-23T11:07:03.528Z,99373.16
2018-09-23T11:09:43.168Z,99372.56
2018-09-23T11:12:23.162Z,99362.14
2018-09-23T11:14:57.627Z,99362.14
2018-09-23T11:17:34.418Z,99350.98
2018-09-23T11:20:06.260Z,99338.59
2018-09-23T11:22:45.306Z,99344.70
2018-09-23T11:25:23.623Z,99326.48
2018-09-23T11:28:01.605Z,99318.45
2018-09-23T11:30:38.648Z,99315.60
2018-09-23T11:33:14.655Z,99304.86
2018-09-23T11:35:48.157Z,99297.80
2018-09-23T11:38:23.400Z,99301.22
2018-09-23T11:40:56.795Z,99278.67
2018-09-23T11:43:37.255Z,99280.07
2018-09-23T11:46:11.567Z,99274.84
2018-09-23T11:48:48.748Z,99269.71
2018-09-23T11:51:22.963Z,99276.99
2018-09-23T11:54:04.041Z,99258.03
2018-09-23T11:56:41.916Z,99253.97
2018-09-23T11:59:15.222Z,99241.38
2018-09-23T12:01:54.893Z,99230.09
2018-09-23T12:04:27.896Z,99239.33
2018-09-23T12:07:03.338Z,99240.25
2018-09-23T12:09:39.451Z,99209.82
2018-09-23T12:15:14.831Z,99177.14
2018-09-23T12:17:52.345Z,99171.84
2018-09-23T12:20:24.429Z,99164.49
2018-09-23T12:22:58.101Z,99147.36
2018-09-23T12:25:30.917Z,99156.41
2018-09-23T12:28:08.096Z,99153.98
2018-09-23T12:30:46.054Z,99121.09
2018-09-23T12:33:24.904Z,99150.34
2018-09-23T12:36:09.978Z,99126.48
2018-09-23T12:38:48.496Z,99140.92
2018-09-23T12:41:30.313Z,99146.31
2018-09-23T12:44:10.855Z,99099.95
2018-09-23T12:46:45.331Z,99097.92
2018-09-23T12:49:17.751Z,99076.23
2018-09-23T12:51:53.062Z,99099.58
2018-09-23T12:54:33.522Z,99057.67
2018-09-23T12:57:08.659Z,99083.88
2018-09-23T12:59:42.813Z,99047.80
2018-09-23T13:02:23.288Z,99057.84
2018-09-23T13:04:59.589Z,99054.13
2018-09-23T13:07:33.647Z,99024.02
2018-09-23T13:10:11.310Z,99040.14
2018-09-23T13:12:45.663Z,99003.47
2018-09-23T13:15:21.313Z,99010.09
2018-09-23T13:17:53.337Z,98990.96
2018-09-23T13:20:27.141Z,98970.39
2018-09-23T13:23:03.550Z,98967.59
2018-09-23T13:25:42.943Z,98947.01
2018-09-23T13:28:18.185Z,98942.30
2018-09-23T13:30:54.207Z,98928.04
2018-09-23T13:33:32.072Z,98903.77
2018-09-23T13:38:47.985Z,98895.38
2018-09-23T13:41:26.514Z,98907.48
2018-09-23T13:46:45.645Z,98873.52
2018-09-23T13:49:17.970Z,98884.91
2018-09-23T13:51:54.305Z,98886.50
2018-09-23T13:54:31.546Z,98900.27
2018-09-23T13:57:13.967Z,98883.49
2018-09-23T13:59:47.041Z,98882.02
2018-09-23T14:02:33.458Z,98864.86
2018-09-23T14:05:11.767Z,98886.61
2018-09-23T14:07:54.036Z,98863.81
2018-09-23T14:10:31.645Z,98876.53
2018-09-23T14:13:05.574Z,98861.47
2018-09-23T14:15:45.997Z,98864.11
2018-09-23T14:18:22.115Z,98847.89
2018-09-23T14:21:02.322Z,98825.73
2018-09-23T14:23:38.714Z,98837.52
2018-09-23T14:26:11.188Z,98816.38
2018-09-23T14:28:41.997Z,98826.84
2018-09-23T14:31:16.444Z,98821.68
2018-09-23T14:33:54.551Z,98807.98
2018-09-23T14:36:32.741Z,98804.96
2018-09-23T14:39:09.841Z,98793.84
2018-09-23T14:41:45.388Z,98790.81
2018-09-23T14:44:19.151Z,98773.82
2018-09-23T14:46:57.385Z,98796.50
2018-09-23T14:49:32.539Z,98796.50
2018-09-23T14:52:05.217Z,98767.19
2018-09-23T14:54:38.845Z,98768.41
2018-09-23T14:57:14.160Z,98776.21
2018-09-23T14:59:54.365Z,98769.27
2018-09-23T15:02:28.593Z,98759.02
2018-09-23T15:05:05.000Z,98734.70
2018-09-23T15:07:40.943Z,98769.07
2018-09-23T15:10:19.463Z,98930.61
2018-09-23T15:12:53.816Z,98987.41
2018-09-23T15:15:31.693Z,99033.41
2018-09-23T15:18:03.649Z,98956.31
2018-09-23T15:20:36.849Z,98885.50
2018-09-23T15:23:15.956Z,98906.46
2018-09-23T15:25:51.722Z,98916.90
2018-09-23T15:28:24.088Z,98937.67
2018-09-23T15:30:56.466Z,98943.47
2018-09-23T15:33:29.671Z,98960.38
2018-09-23T15:36:11.453Z,98975.72
2018-09-23T15:38:48.845Z,98983.40
2018-09-23T15:41:31.063Z,98986.05
2018-09-23T15:44:10.376Z,98981.79
2018-09-23T15:46:45.003Z,98960.48
2018-09-23T15:49:19.828Z,98973.94
2018-09-23T15:52:01.000Z,98962.28
2018-09-23T15:54:36.252Z,98956.28
2018-09-23T15:57:11.804Z,98988.41
2018-09-23T15:59:47.460Z,99013.02
2018-09-23T16:02:24.737Z,99034.36
2018-09-23T16:05:01.960Z,99038.66
2018-09-23T16:07:38.745Z,99053.14
2018-09-23T16:10:15.365Z,99080.45
2018-09-23T16:12:52.971Z,99104.45
2018-09-23T16:15:25.442Z,99131.02
2018-09-23T16:17:57.917Z,99137.27
2018-09-23T16:20:30.097Z,99141.86
2018-09-23T16:23:03.261Z,99158.73
2018-09-23T16:25:39.033Z,99164.77
2018-09-23T16:28:16.521Z,99185.73
2018-09-23T16:30:51.554Z,99181.80
2018-09-23T16:33:30.278Z,99193.22
2018-09-23T16:36:04.590Z,99199.88
2018-09-23T16:38:45.164Z,99204.91
2018-09-23T16:41:22.909Z,99204.06
2018-09-23T16:44:02.055Z,99188.83
2018-09-23T16:46:37.745Z,99199.22
2018-09-23T16:49:09.705Z,99174.37
2018-09-23T16:51:48.515Z,99130.18
2018-09-23T16:54:24.404Z,99166.25
2018-09-23T16:56:56.138Z,99198.72
2018-09-23T16:59:33.133Z,99190.88
2018-09-23T17:02:08.828Z,99179.59
2018-09-23T17:04:50.428Z,99216.69
2018-09-23T17:07:27.982Z,99232.20
2018-09-23T17:10:11.153Z,99220.53
2018-09-23T17:12:45.269Z,99246.10
2018-09-23T17:15:21.067Z,99245.61
2018-09-23T17:17:58.109Z,99249.83
2018-09-23T17:20:33.591Z,99250.09
2018-09-23T17:23:04.887Z,99271.70
2018-09-23T17:25:38.743Z,99352.81
2018-09-23T17:28:16.260Z,99397.27
2018-09-23T17:30:54.324Z,99372.67
2018-09-23T17:33:28.756Z,99370.77
2018-09-23T17:36:05.546Z,99411.08
2018-09-23T17:38:43.538Z,99358.37
2018-09-23T17:41:20.531Z,99339.95
2018-09-23T17:44:00.780Z,99319.00
2018-09-23T17:46:37.501Z,99333.18
2018-09-23T17:49:10.799Z,99384.30
2018-09-23T17:51:47.610Z,99372.15
2018-09-23T17:54:22.662Z,99395.05
2018-09-23T17:56:57.185Z,99437.56
2018-09-23T17:59:32.243Z,99449.20
2018-09-23T18:02:07.779Z,99479.53
2018-09-23T18:04:40.077Z,99505.74
2018-09-23T18:07:16.504Z,99515.52
2018-09-23T18:09:52.164Z,99521.91
2018-09-23T18:12:23.970Z,99537.64
2018-09-23T18:14:56.604Z,99546.92
2018-09-23T18:17:35.531Z,99551.00
2018-09-23T18:20:11.808Z,99581.50
2018-09-23T18:22:56.568Z,99613.92
2018-09-23T18:25:34.475Z,99631.77
2018-09-23T18:28:10.851Z,99657.39
2018-09-23T18:30:45.983Z,99657.73
2018-09-23T18:33:21.700Z,99673.39
2018-09-23T18:35:57.663Z,99668.53
2018-09-23T18:38:31.688Z,99697.67
2018-09-23T18:41:06.928Z,99742.12
2018-09-23T18:43:47.198Z,99772.64
2018-09-23T18:46:23.966Z,99799.58
2018-09-23T18:48:59.323Z,99811.48
2018-09-23T18:51:36.804Z,99813.40
2018-09-23T18:54:15.014Z,99828.67
2018-09-23T18:56:51.993Z,99842.30
2018-09-23T18:59:27.642Z,99858.09
2018-09-23T19:02:05.684Z,99889.61
2018-09-23T19:04:45.773Z,99893.16
2018-09-23T19:07:21.439Z,99889.18
2018-09-23T19:10:03.863Z,99903.27
2018-09-23T19:12:38.972Z,99907.66
2018-09-23T19:15:15.434Z,99919.06
2018-09-23T19:17:54.932Z,99923.19
2018-09-23T19:20:27.868Z,99915.98
2018-09-23T19:23:05.258Z,99925.72
2018-09-23T19:25:35.991Z,99938.81
2018-09-23T19:28:20.269Z,99953.84
2018-09-23T19:31:05.535Z,99951.48
2018-09-23T19:33:41.606Z,99949.96
2018-09-23T19:36:19.246Z,99960.95
2018-09-23T19:38:55.142Z,99966.91
2018-09-23T19:41:33.035Z,99972.73
2018-09-23T19:44:06.122Z,99981.23
2018-09-23T19:46:43.830Z,99974.74
2018-09-23T19:49:18.619Z,99996.67
2018-09-23T19:51:50.932Z,100008.62
2018-09-23T19:54:29.281Z,100024.47
2018-09-23T19:57:12.219Z,100039.88
2018-09-23T19:59:48.696Z,100051.81
2018-09-23T20:02:24.992Z,100060.13
2018-09-23T20:04:59.514Z,100067.11
2018-09-23T20:07:32.195Z,100081.31
2018-09-23T20:10:07.126Z,100095.50
2018-09-23T20:12:42.398Z,100108.88
2018-09-23T20:15:20.450Z,100120.70
2018-09-23T20:17:54.136Z,100126.19
2018-09-23T20:20:27.258Z,100146.20
2018-09-23T20:23:02.804Z,100146.42
2018-09-23T20:25:36.924Z,100159.58
2018-09-23T20:28:13.022Z,100172.56
2018-09-23T20:30:45.995Z,100184.96
2018-09-23T20:33:18.607Z,100194.92
2018-09-23T20:35:54.019Z,100207.85
2018-09-23T20:38:27.973Z,100223.27
2018-09-23T20:41:03.333Z,100228.69
2018-09-23T20:43:37.349Z,100242.27
2018-09-23T20:46:11.267Z,100257.95
2018-09-23T20:48:43.235Z,100266.08
2018-09-23T20:51:20.244Z,100279.09
2018-09-23T20:53:51.907Z,100293.27
2018-09-23T20:56:27.582Z,100299.30
2018-09-23T20:59:07.958Z,100307.23
2018-09-23T21:01:43.156Z,100312.88
2018-09-23T21:04:16.203Z,100330.73
2018-09-23T21:06:53.904Z,100334.30
2018-09-23T21:09:26.906Z,100342.89
2018-09-23T21:12:01.312Z,100357.42
2018-09-23T21:14:35.929Z,100368.08
2018-09-23T21:17:13.902Z,100371.70
2018-09-23T21:19:52.028Z,100382.84
2018-09-23T21:22:29.326Z,100382.00
2018-09-23T21:25:04.987Z,100397.33
2018-09-23T21:27:36.212Z,100398.05
2018-09-23T21:30:09.020Z,100410.05
2018-09-23T21:32:42.750Z,100404.72
2018-09-23T21:35:20.397Z,100417.11
2018-09-23T21:37:56.841Z,100439.23
2018-09-23T21:40:43.194Z,100436.26
2018-09-23T21:43:28.963Z,100447.00
2018-09-23T21:46:06.159Z,100450.45
2018-09-23T21:48:40.178Z,100451.45
2018-09-23T21:51:34.170Z,100458.25
2018-09-23T21:54:08.520Z,100461.02
2018-09-23T21:56:47.356Z,100469.23
2018-09-23T21:59:22.099Z,100477.05
2018-09-23T22:01:55.119Z,100496.70
2018-09-23T22:04:32.391Z,100507.66
2018-09-23T22:07:05.180Z,100511.55
2018-09-23T22:09:43.929Z,100522.34
2018-09-23T22:12:20.411Z,100527.25
2018-09-23T22:14:51.156Z,100528.09
2018-09-23T22:17:31.102Z,100538.64
2018-09-23T22:20:06.366Z,100556.19
2018-09-23T22:22:41.814Z,100560.75
2018-09-23T22:25:18.204Z,100572.92
2018-09-23T22:27:50.688Z,100582.52
2018-09-23T22:30:26.163Z,100589.11
2018-09-23T22:32:57.605Z,100595.37
2018-09-23T22:35:42.605Z,100603.72
2018-09-23T22:38:16.679Z,100611.66
2018-09-23T22:40:56.537Z,100625.03
2018-09-23T22:43:38.307Z,100625.97
2018-09-23T22:46:12.004Z,100628.29
2018-09-23T22:48:49.112Z,100638.23
2018-09-23T22:51:20.678Z,100647.36
2018-09-23T22:53:56.312Z,100657.97
2018-09-23T22:56:29.422Z,100665.11
2018-09-23T22:59:07.631Z,100667.72
2018-09-23T23:01:45.890Z,100681.64
2018-09-23T23:04:21.350Z,100686.92
2018-09-23T23:06:59.973Z,100697.45
2018-09-23T23:09:35.542Z,100711.84
2018-09-23T23:12:06.364Z,100717.16
2018-09-23T23:14:38.550Z,100722.36
2018-09-23T23:17:10.181Z,100733.03
2018-09-23T23:19:43.554Z,100738.42
2018-09-23T23:22:20.106Z,100749.55
2018-09-23T23:24:52.723Z,100754.38
2018-09-23T23:27:25.827Z,100759.23
2018-09-23T23:30:00.665Z,100764.33
2018-09-23T23:32:36.097Z,100771.86
2018-09-23T23:35:14.441Z,100782.73
2018-09-23T23:37:48.478Z,100784.03
2018-09-23T23:40:31.944Z,100785.44
2018-09-23T23:43:06.840Z,100792.86
2018-09-23T23:45:40.161Z,100794.90
2018-09-23T23:48:12.458Z,100801.12
2018-09-23T23:50:43.402Z,100800.21
2018-09-23T23:53:17.103Z,100811.27
2018-09-23T23:55:52.644Z,100814.98
2018-09-23T23:58:31.563Z,100827.88
